Time;durP1;ratioP1;P1;durP2;ratioP2;P2;SDS_P1;SDS_P2;PMS_P1;PMS_P2;Temp;Humidity;BMP_temperature;BMP_pressure;BME280_temperature;BME280_humidity;BME280_pressure;Samples;Min_cycle;Max_cycle;Signal;HPM_P1;HPM_P2
2022/03/23 00:03:30;;;;;;;7.57;2.80;;;4.00;92.50;;;;;;10443391;28;20041;-59
2022/03/23 00:08:32;;;;;;;7.18;3.08;;;3.90;93.50;;;;;;10435158;28;20071;-59
2022/03/23 00:13:34;;;;;;;6.72;3.03;;;3.80;94.30;;;;;;10434851;28;20056;-59
2022/03/23 00:18:35;;;;;;;8.38;3.33;;;3.80;95.00;;;;;;10452028;28;20053;-59
2022/03/23 00:23:37;;;;;;;9.45;3.30;;;3.70;96.30;;;;;;10450842;28;20098;-60
2022/03/23 00:28:39;;;;;;;6.30;3.25;;;3.60;96.40;;;;;;10450296;28;20087;-61
2022/03/23 00:33:40;;;;;;;12.48;3.40;;;3.50;95.50;;;;;;10454883;28;20041;-60
2022/03/23 00:38:43;;;;;;;11.75;3.10;;;3.50;96.60;;;;;;10451488;28;20561;-59
2022/03/23 00:43:45;;;;;;;6.68;3.00;;;3.40;95.90;;;;;;10443178;28;20080;-60
2022/03/23 00:48:47;;;;;;;9.90;2.78;;;3.40;96.80;;;;;;10443293;28;20065;-59
2022/03/23 00:53:49;;;;;;;7.55;2.83;;;3.30;95.80;;;;;;10446269;28;20056;-60
2022/03/23 00:58:50;;;;;;;11.02;3.35;;;3.20;96.30;;;;;;10445858;28;20068;-60
2022/03/23 01:03:53;;;;;;;8.57;3.20;;;3.10;97.00;;;;;;10446389;28;20134;-59
2022/03/23 01:08:54;;;;;;;11.30;3.53;;;3.10;96.60;;;;;;10447158;28;20542;-58
2022/03/23 01:13:56;;;;;;;6.50;3.47;;;3.10;97.10;;;;;;10444633;28;20056;-58
2022/03/23 01:18:58;;;;;;;7.30;3.20;;;3.00;96.80;;;;;;10447929;28;20091;-61
2022/03/23 01:24:00;;;;;;;9.32;3.25;;;3.00;97.20;;;;;;10443553;28;20049;-59
2022/03/23 01:29:03;;;;;;;8.70;4.35;;;2.90;97.50;;;;;;10441800;28;20060;-59
2022/03/23 01:34:05;;;;;;;7.22;2.85;;;2.90;98.10;;;;;;10442923;28;20072;-59
2022/03/23 01:39:07;;;;;;;8.88;3.85;;;2.80;98.70;;;;;;10446114;28;20084;-60
2022/03/23 01:44:17;;;;;;;9.18;3.97;;;2.80;99.00;;;;;;10443487;28;20505;-60
2022/03/23 01:49:19;;;;;;;9.25;3.17;;;2.70;97.50;;;;;;10454689;28;20126;-60
2022/03/23 01:54:21;;;;;;;7.10;3.97;;;2.70;99.10;;;;;;10442638;28;20498;-61
2022/03/23 01:59:23;;;;;;;8.93;3.15;;;2.70;99.60;;;;;;10449303;28;20065;-59
2022/03/23 02:04:25;;;;;;;10.38;3.13;;;2.60;99.70;;;;;;10446818;28;20148;-59
2022/03/23 02:09:27;;;;;;;14.55;3.45;;;2.50;99.90;;;;;;10443731;28;20056;-59
2022/03/23 02:14:29;;;;;;;10.60;5.00;;;2.50;99.90;;;;;;10433922;28;20129;-59
2022/03/23 02:19:31;;;;;;;6.47;2.85;;;2.40;99.90;;;;;;10442586;28;20388;-60
2022/03/23 02:24:33;;;;;;;6.65;3.25;;;2.40;99.90;;;;;;10445323;28;20063;-60
2022/03/23 02:29:34;;;;;;;11.00;3.33;;;2.30;99.90;;;;;;10441938;28;20048;-60
2022/03/23 02:34:36;;;;;;;11.93;5.28;;;2.20;99.90;;;;;;10437008;28;20085;-60
2022/03/23 02:39:38;;;;;;;16.05;7.32;;;2.20;99.90;;;;;;10443021;28;20041;-60
2022/03/23 02:44:39;;;;;;;15.23;5.75;;;2.10;99.90;;;;;;10438340;28;20040;-60
2022/03/23 02:49:41;;;;;;;16.73;5.18;;;2.10;99.90;;;;;;10443698;28;20040;-60
2022/03/23 03:05:36;;;;;;;11.82;4.13;;;2.00;99.90;;;;;;10442711;28;20048;-60
2022/03/23 03:10:37;;;;;;;8.98;3.35;;;1.90;99.90;;;;;;10443016;28;20481;-60
2022/03/23 03:15:39;;;;;;;9.95;3.30;;;1.90;99.90;;;;;;10438623;28;20570;-60
2022/03/23 03:20:40;;;;;;;10.18;3.33;;;1.90;99.90;;;;;;10436686;28;20041;-59
2022/03/23 03:25:42;;;;;;;8.80;3.35;;;1.90;99.90;;;;;;10440549;28;20579;-59
2022/03/23 03:30:44;;;;;;;14.35;4.32;;;1.80;99.90;;;;;;10442387;28;20564;-58
2022/03/23 03:35:46;;;;;;;10.25;3.58;;;1.80;99.90;;;;;;10442619;28;20100;-59
2022/03/23 03:40:47;;;;;;;8.98;3.67;;;1.80;99.90;;;;;;10436463;28;20521;-60
2022/03/23 03:45:49;;;;;;;11.82;3.42;;;1.70;99.90;;;;;;10438847;28;20138;-58
2022/03/23 03:50:51;;;;;;;6.60;3.60;;;1.70;99.90;;;;;;10440381;28;20040;-59
2022/03/23 03:55:52;;;;;;;8.85;3.90;;;1.70;99.90;;;;;;10443637;28;20128;-60
2022/03/23 04:00:54;;;;;;;9.93;4.03;;;1.60;99.90;;;;;;10449832;28;20068;-60
2022/03/23 04:05:57;;;;;;;12.25;3.70;;;1.60;99.90;;;;;;10446844;28;20052;-59
2022/03/23 04:10:59;;;;;;;8.80;3.33;;;1.50;99.90;;;;;;10442499;28;20088;-59
2022/03/23 04:16:01;;;;;;;9.68;3.58;;;1.40;99.90;;;;;;10448210;28;20067;-60
2022/03/23 04:21:02;;;;;;;8.82;3.75;;;1.40;99.90;;;;;;10449027;28;20072;-59
2022/03/23 04:26:06;;;;;;;10.15;3.50;;;1.40;99.90;;;;;;10444736;28;20164;-59
2022/03/23 04:31:08;;;;;;;13.75;4.68;;;1.30;99.90;;;;;;10448931;28;20083;-60
2022/03/23 04:36:13;;;;;;;8.82;3.53;;;1.30;99.90;;;;;;10454772;28;20080;-60
2022/03/23 04:41:15;;;;;;;11.70;3.70;;;1.30;99.90;;;;;;10447085;28;20176;-60
2022/03/23 04:46:16;;;;;;;10.32;3.58;;;1.20;99.90;;;;;;10446107;28;20106;-60
2022/03/23 04:51:18;;;;;;;10.95;5.00;;;1.20;99.90;;;;;;10442891;28;20156;-60
2022/03/23 04:56:20;;;;;;;12.15;4.65;;;1.20;99.90;;;;;;10442380;28;20072;-60
2022/03/23 05:01:22;;;;;;;13.50;5.45;;;1.30;99.90;;;;;;10442058;28;20605;-60
2022/03/23 05:06:24;;;;;;;12.85;4.97;;;1.30;99.90;;;;;;10441309;28;20344;-58
2022/03/23 05:11:25;;;;;;;9.63;4.40;;;1.30;99.90;;;;;;10445589;28;20107;-59
2022/03/23 05:16:27;;;;;;;15.25;5.57;;;1.30;99.90;;;;;;10447715;28;20128;-60
2022/03/23 05:21:29;;;;;;;12.05;5.40;;;1.40;99.90;;;;;;10448087;28;20055;-61
2022/03/23 05:26:31;;;;;;;13.35;5.20;;;1.40;99.90;;;;;;10448496;28;20186;-62
2022/03/23 05:31:33;;;;;;;16.08;5.47;;;1.50;99.90;;;;;;10449114;28;20210;-62
2022/03/23 05:36:34;;;;;;;15.45;6.05;;;1.50;99.90;;;;;;10448126;28;20546;-62
2022/03/23 05:41:36;;;;;;;14.82;5.43;;;1.60;99.90;;;;;;10444752;28;20796;-63
2022/03/23 05:46:38;;;;;;;17.10;5.80;;;1.60;99.90;;;;;;10445120;28;20076;-63
2022/03/23 05:51:40;;;;;;;12.48;4.55;;;1.60;99.90;;;;;;10451731;28;20128;-63
2022/03/23 05:56:42;;;;;;;9.43;4.95;;;1.70;99.90;;;;;;10449021;28;20052;-62
2022/03/23 06:01:43;;;;;;;12.93;6.00;;;1.70;99.90;;;;;;10447846;28;20076;-62
2022/03/23 06:06:45;;;;;;;13.60;4.85;;;1.70;99.90;;;;;;10448760;28;20498;-62
2022/03/23 06:11:47;;;;;;;19.92;5.55;;;1.80;99.90;;;;;;10444181;28;20513;-62
2022/03/23 06:16:50;;;;;;;12.18;5.93;;;1.90;99.90;;;;;;10440495;28;20173;-62
2022/03/23 06:21:51;;;;;;;17.83;5.97;;;2.00;99.90;;;;;;10444971;28;20396;-62
2022/03/23 06:26:53;;;;;;;13.82;5.60;;;2.00;99.90;;;;;;10444595;28;20121;-63
2022/03/23 06:31:55;;;;;;;15.38;6.13;;;2.20;99.90;;;;;;10440194;28;20559;-62
2022/03/23 06:36:57;;;;;;;15.63;6.90;;;2.20;99.90;;;;;;10444685;28;20060;-62
2022/03/23 06:41:58;;;;;;;15.18;6.07;;;2.40;99.90;;;;;;10438704;28;20145;-63
2022/03/23 06:47:00;;;;;;;19.02;6.45;;;2.50;99.90;;;;;;10446882;28;20118;-61
2022/03/23 06:52:02;;;;;;;18.23;6.97;;;2.60;99.90;;;;;;10440431;28;20072;-62
2022/03/23 06:57:04;;;;;;;19.05;8.48;;;2.80;99.90;;;;;;10442161;28;20127;-61
2022/03/23 07:02:08;;;;;;;15.27;6.32;;;3.00;99.90;;;;;;10445043;28;20044;-61
2022/03/23 07:07:09;;;;;;;14.00;7.00;;;3.10;99.90;;;;;;10447283;28;20048;-61
2022/03/23 07:12:11;;;;;;;16.20;6.68;;;3.30;99.90;;;;;;10446227;28;20102;-61
2022/03/23 07:17:13;;;;;;;13.38;6.80;;;3.50;99.90;;;;;;10443512;28;20265;-62
2022/03/23 07:22:15;;;;;;;16.08;6.95;;;3.60;99.90;;;;;;10440634;28;20052;-62
2022/03/23 07:27:17;;;;;;;19.65;6.97;;;3.90;98.40;;;;;;10442806;28;20048;-61
2022/03/23 07:32:21;;;;;;;14.55;6.95;;;4.00;97.40;;;;;;10436054;28;20052;-61
2022/03/23 07:37:23;;;;;;;15.45;6.88;;;4.20;96.90;;;;;;10440628;28;20499;-61
2022/03/23 07:42:24;;;;;;;13.32;6.32;;;4.30;96.60;;;;;;10443853;28;20045;-60
2022/03/23 07:47:26;;;;;;;14.02;6.82;;;4.50;96.10;;;;;;10435628;28;20494;-60
2022/03/23 07:52:28;;;;;;;14.35;7.22;;;4.70;95.50;;;;;;10434588;28;20045;-61
2022/03/23 07:57:29;;;;;;;23.65;7.75;;;4.90;94.00;;;;;;10445435;28;20049;-61
2022/03/23 08:02:31;;;;;;;19.85;8.30;;;5.10;92.80;;;;;;10440548;28;20048;-60
2022/03/23 08:07:33;;;;;;;18.85;7.35;;;5.30;91.70;;;;;;10444419;28;20037;-60
2022/03/23 08:12:35;;;;;;;16.48;7.03;;;5.50;91.20;;;;;;10443056;28;20095;-61
2022/03/23 08:17:38;;;;;;;13.35;6.93;;;5.70;90.40;;;;;;10440554;28;20073;-61
2022/03/23 08:22:40;;;;;;;16.83;7.07;;;5.90;89.90;;;;;;10443964;28;20041;-61
2022/03/23 08:27:42;;;;;;;21.45;7.68;;;6.10;88.10;;;;;;10443514;28;20106;-61
2022/03/23 08:32:43;;;;;;;17.88;7.65;;;6.40;86.30;;;;;;10440043;28;20110;-61
2022/03/23 08:37:45;;;;;;;15.13;7.47;;;6.80;89.80;;;;;;10446478;28;20494;-61
2022/03/23 08:42:47;;;;;;;27.00;7.15;;;7.00;91.60;;;;;;10442178;28;20060;-60
2022/03/23 08:47:49;;;;;;;17.00;8.90;;;7.20;93.30;;;;;;10449302;28;20057;-62
2022/03/23 08:52:52;;;;;;;14.82;7.15;;;7.40;93.20;;;;;;10451617;28;20045;-61
2022/03/23 08:57:54;;;;;;;18.55;7.75;;;7.50;80.20;;;;;;10449820;28;20044;-61
2022/03/23 09:02:56;;;;;;;17.85;8.32;;;7.80;78.10;;;;;;10448026;28;20110;-61
2022/03/23 09:07:59;;;;;;;13.55;7.53;;;8.00;77.60;;;;;;10450427;28;20487;-60
2022/03/23 09:13:01;;;;;;;15.50;7.22;;;8.30;76.30;;;;;;10446545;28;20045;-60
2022/03/23 09:18:03;;;;;;;14.45;7.68;;;8.60;73.20;;;;;;10443178;28;20079;-61
2022/03/23 09:23:05;;;;;;;17.98;7.85;;;8.70;72.00;;;;;;10444929;28;20141;-61
2022/03/23 09:28:06;;;;;;;19.98;8.52;;;9.00;70.20;;;;;;10447128;28;20052;-61
2022/03/23 09:33:08;;;;;;;17.02;8.18;;;9.30;68.90;;;;;;10441327;28;20110;-61
2022/03/23 09:38:11;;;;;;;23.40;7.88;;;9.50;65.50;;;;;;10445624;28;20127;-61
2022/03/23 09:43:14;;;;;;;19.88;8.88;;;9.80;66.80;;;;;;10445506;28;20043;-61
2022/03/23 09:48:21;;;;;;;17.48;8.13;;;10.00;65.60;;;;;;10445526;28;20056;-60
2022/03/23 09:53:24;;;;;;;;;;;10.20;64.00;;;;;;10455895;28;20441;-60
2022/03/23 09:58:26;;;;;;;18.50;7.88;;;10.50;64.20;;;;;;10443831;28;19928;-60
2022/03/23 10:03:41;;;;;;;17.48;8.13;;;;;;;;;;10445347;28;20399;-62
2022/03/23 10:09:21;;;;;;;20.63;9.38;;;11.40;74.40;;;;;;10444251;28;20045;-61
2022/03/23 10:15:24;;;;;;;15.50;7.82;;;11.70;60.00;;;;;;10438414;28;20044;-60
2022/03/23 10:20:29;;;;;;;18.55;8.93;;;12.40;59.40;;;;;;10442640;28;20456;-60
2022/03/23 10:25:30;;;;;;;16.30;8.27;;;13.60;56.50;;;;;;10440949;28;20055;-61
2022/03/23 10:30:36;;;;;;;14.93;9.13;;;;;;;;;;10443503;28;20741;-62
2022/03/23 10:35:40;;;;;;;16.13;8.73;;;16.60;89.90;;;;;;10435674;28;20080;-61
2022/03/23 10:40:44;;;;;;;15.80;9.32;;;17.40;45.50;;;;;;10446500;28;20062;-61
2022/03/23 10:45:47;;;;;;;15.38;9.57;;;19.00;44.10;;;;;;10439984;28;20076;-61
2022/03/23 10:50:53;;;;;;;12.70;7.97;;;20.30;40.90;;;;;;10441591;28;20052;-62
2022/03/23 10:55:55;;;;;;;17.95;7.72;;;20.50;38.00;;;;;;10444705;28;20049;-62
2022/03/23 11:01:05;;;;;;;10.85;6.72;;;22.60;32.90;;;;;;10440630;28;20137;-62
2022/03/23 11:06:12;;;;;;;9.52;7.85;;;22.60;33.00;;;;;;10435483;28;20158;-62
2022/03/23 11:16:35;;;;;;;10.13;7.22;;;24.10;31.80;;;;;;10438582;28;20037;-61
2022/03/23 11:22:12;;;;;;;9.70;7.28;;;24.80;30.70;;;;;;10442359;28;20643;-61
2022/03/23 11:27:18;;;;;;;14.55;6.68;;;25.80;30.00;;;;;;10437631;28;20522;-62
2022/03/23 11:32:27;;;;;;;10.48;6.60;;;26.40;29.20;;;;;;10439841;28;20052;-62
2022/03/23 11:37:29;;;;;;;8.05;5.82;;;27.30;28.30;;;;;;10445963;28;20105;-62
2022/03/23 11:42:32;;;;;;;8.32;5.10;;;28.10;26.80;;;;;;10439701;28;20076;-62
2022/03/23 11:47:36;;;;;;;8.93;4.97;;;;;;;;;;10441296;28;20582;-62
2022/03/23 11:52:57;;;;;;;10.98;5.40;;;29.20;24.40;;;;;;10441863;28;20620;-62
2022/03/23 11:58:03;;;;;;;8.27;5.03;;;29.20;32.40;;;;;;10450297;28;20141;-62
2022/03/23 12:03:05;;;;;;;6.40;4.32;;;29.50;24.80;;;;;;10438770;28;20041;-63
2022/03/23 12:08:07;;;;;;;6.32;4.13;;;29.80;24.00;;;;;;10438381;28;20110;-63
2022/03/23 12:13:17;;;;;;;4.63;3.88;;;30.10;24.50;;;;;;10438088;28;20072;-62
2022/03/23 12:18:18;;;;;;;6.28;4.85;;;30.10;23.60;;;;;;10448468;28;20097;-62
2022/03/23 12:23:54;;;;;;;9.50;4.07;;;28.70;24.80;;;;;;10445499;28;20053;-62
2022/03/23 12:29:15;;;;;;;8.70;4.60;;;29.90;23.80;;;;;;10393597;28;20089;-62
2022/03/23 12:34:26;;;;;;;7.43;4.55;;;30.50;23.80;;;;;;10447539;28;20053;-62
2022/03/23 12:39:31;;;;;;;5.53;4.70;;;30.20;25.20;;;;;;10444353;28;20389;-62
2022/03/23 12:44:34;;;;;;;9.43;5.40;;;29.70;23.90;;;;;;10444080;28;20439;-62
2022/03/23 13:00:49;;;;;;;13.43;5.55;;;32.10;23.80;;;;;;10441926;28;20310;-62
2022/03/23 13:05:59;;;;;;;5.85;4.38;;;32.30;24.50;;;;;;10447538;28;20044;-61
2022/03/23 13:11:06;;;;;;;10.05;5.03;;;31.70;24.80;;;;;;10443590;28;20055;-61
2022/03/23 13:16:13;;;;;;;10.63;4.55;;;32.00;23.70;;;;;;10447520;28;20126;-61
2022/03/23 13:21:21;;;;;;;5.45;4.47;;;32.00;23.70;;;;;;10450959;28;20047;-61
2022/03/23 13:26:25;;;;;;;8.77;5.57;;;32.30;23.10;;;;;;10447324;28;20446;-62
2022/03/23 13:31:34;;;;;;;7.40;4.57;;;31.00;22.80;;;;;;10441441;28;20110;-61
2022/03/23 13:36:39;;;;;;;7.75;4.93;;;31.70;23.10;;;;;;10435479;28;20045;-61
2022/03/23 13:47:04;;;;;;;6.65;4.20;;;31.80;23.30;;;;;;10446658;28;20048;-61
2022/03/23 13:52:05;;;;;;;11.50;5.55;;;32.30;23.20;;;;;;10440909;28;20048;-61
2022/03/23 13:57:09;;;;;;;5.80;5.20;;;31.30;23.90;;;;;;10442029;28;20049;-61
2022/03/23 14:02:11;;;;;;;7.10;4.55;;;30.60;22.80;;;;;;10445224;28;20041;-60
2022/03/23 14:07:13;;;;;;;11.40;4.53;;;31.00;23.30;;;;;;10444742;28;20052;-65
2022/03/23 14:12:16;;;;;;;5.63;4.45;;;31.60;25.00;;;;;;10443999;28;20110;-63
2022/03/23 14:17:23;;;;;;;10.15;5.53;;;30.50;24.50;;;;;;10441311;28;20071;-61
2022/03/23 14:22:26;;;;;;;9.75;5.60;;;29.20;26.90;;;;;;10441638;28;20493;-66
2022/03/23 14:27:32;;;;;;;7.75;5.55;;;28.20;25.70;;;;;;10439990;28;20564;-68
2022/03/23 14:32:43;;;;;;;9.18;6.20;;;27.40;25.90;;;;;;10435082;28;20057;-63
2022/03/23 14:37:50;;;;;;;9.68;5.38;;;27.70;25.60;;;;;;10447790;28;20044;-64
2022/03/23 14:42:54;;;;;;;6.13;5.43;;;27.20;26.20;;;;;;10444602;28;20052;-63
2022/03/23 14:47:57;;;;;;;7.07;4.75;;;27.00;27.40;;;;;;10439312;28;20045;-63
2022/03/23 14:52:59;;;;;;;9.98;6.07;;;26.80;26.60;;;;;;10447918;28;20048;-67
2022/03/23 14:58:01;;;;;;;8.10;5.93;;;26.60;26.60;;;;;;10446589;28;20055;-64
2022/03/23 15:03:03;;;;;;;10.38;5.60;;;26.30;26.80;;;;;;10446866;28;20128;-61
2022/03/23 15:13:26;;;;;;;7.85;5.47;;;25.50;27.50;;;;;;10444526;28;20522;-61
2022/03/23 15:18:28;;;;;;;10.70;6.55;;;25.30;27.50;;;;;;10437578;28;20460;-61
2022/03/23 15:23:30;;;;;;;9.45;5.90;;;24.90;28.00;;;;;;10445336;28;20056;-61
2022/03/23 15:28:33;;;;;;;9.35;5.70;;;24.50;28.20;;;;;;10448720;28;20103;-62
2022/03/23 15:33:34;;;;;;;9.23;5.93;;;24.00;29.20;;;;;;10439146;28;20060;-61
2022/03/23 15:38:36;;;;;;;12.60;6.18;;;23.70;30.00;;;;;;10443637;28;20044;-63
2022/03/23 15:43:42;;;;;;;18.13;6.47;;;23.20;29.00;;;;;;10439814;28;20076;-65
2022/03/23 15:48:48;;;;;;;9.55;5.40;;;23.00;29.20;;;;;;10438283;28;20072;-64
2022/03/23 15:53:50;;;;;;;15.73;6.93;;;22.80;29.30;;;;;;10446793;28;20041;-64
2022/03/23 15:58:52;;;;;;;9.15;6.30;;;22.50;29.30;;;;;;10451162;28;20106;-62
2022/03/23 16:03:54;;;;;;;8.73;5.65;;;22.30;29.70;;;;;;10449574;28;20037;-61
2022/03/23 16:08:56;;;;;;;9.93;5.95;;;22.20;29.60;;;;;;10446753;28;20043;-64
2022/03/23 16:13:59;;;;;;;10.65;6.00;;;22.10;30.00;;;;;;10445957;28;20376;-61
2022/03/23 16:19:01;;;;;;;9.85;5.63;;;22.00;31.20;;;;;;10451602;28;20040;-62
2022/03/23 16:24:05;;;;;;;9.98;5.90;;;21.90;30.40;;;;;;10451688;28;20563;-61
2022/03/23 16:29:07;;;;;;;12.23;5.22;;;21.70;30.40;;;;;;10447742;28;20079;-61
2022/03/23 16:34:10;;;;;;;11.52;5.57;;;21.60;30.70;;;;;;10447644;28;20118;-65
2022/03/23 16:39:12;;;;;;;11.32;6.28;;;21.40;30.50;;;;;;10454328;28;20036;-62
2022/03/23 16:44:14;;;;;;;9.75;5.60;;;21.20;30.30;;;;;;10448423;28;20580;-62
2022/03/23 16:49:16;;;;;;;8.43;5.72;;;21.10;31.30;;;;;;10451886;28;20709;-62
2022/03/23 16:54:20;;;;;;;14.80;7.05;;;20.90;32.60;;;;;;10444675;28;20049;-63
2022/03/23 16:59:23;;;;;;;11.05;6.32;;;20.70;32.60;;;;;;10449091;28;20435;-61
2022/03/23 17:15:15;;;;;;;9.65;5.55;;;19.90;33.80;;;;;;10443773;28;20040;-65
2022/03/23 17:20:17;;;;;;;13.43;6.22;;;19.50;34.20;;;;;;10443321;28;20561;-66
2022/03/23 17:25:18;;;;;;;14.25;7.10;;;19.00;35.60;;;;;;10452690;28;20049;-63
2022/03/23 17:30:20;;;;;;;13.43;7.03;;;18.70;36.70;;;;;;10447243;28;20106;-65
2022/03/23 17:35:22;;;;;;;13.90;6.93;;;18.20;37.50;;;;;;10436654;28;20564;-66
2022/03/23 17:40:26;;;;;;;15.02;7.88;;;18.00;38.60;;;;;;10447036;28;20063;-66
2022/03/23 17:45:27;;;;;;;15.07;6.68;;;17.50;40.40;;;;;;10446206;28;20394;-65
2022/03/23 17:50:30;;;;;;;16.45;6.88;;;17.20;42.30;;;;;;10447633;28;20045;-65
2022/03/23 17:55:32;;;;;;;15.00;6.22;;;16.80;44.80;;;;;;10444437;28;20078;-70
2022/03/23 18:00:35;;;;;;;17.55;6.38;;;16.40;43.30;;;;;;10444008;28;20076;-71
2022/03/23 18:05:37;;;;;;;16.75;6.57;;;16.10;45.60;;;;;;10441041;28;20049;-71
2022/03/23 18:10:38;;;;;;;19.42;7.93;;;15.80;48.00;;;;;;10449954;28;20040;-70
2022/03/23 18:15:40;;;;;;;16.50;7.75;;;15.40;49.10;;;;;;10446691;28;20139;-71
2022/03/23 18:20:42;;;;;;;19.52;6.63;;;15.10;50.50;;;;;;10432532;28;20048;-70
2022/03/23 18:25:45;;;;;;;13.70;6.70;;;14.80;50.20;;;;;;10449250;28;20078;-71
2022/03/23 18:30:50;;;;;;;17.90;8.05;;;14.50;51.40;;;;;;10441695;28;20049;-70
2022/03/23 18:36:12;;;;;;;14.98;7.75;;;14.20;52.80;;;;;;10445217;28;20047;-71
2022/03/23 18:41:16;;;;;;;27.05;7.90;;;13.90;51.30;;;;;;10436787;28;20052;-72
2022/03/23 18:46:20;;;;;;;19.70;8.35;;;13.70;53.30;;;;;;10444834;28;20480;-69
2022/03/23 18:51:22;;;;;;;17.70;8.70;;;13.40;54.50;;;;;;10440045;28;20036;-70
2022/03/23 18:56:24;;;;;;;25.50;8.18;;;13.20;56.10;;;;;;10445796;28;20040;-71
2022/03/23 19:01:25;;;;;;;17.10;7.10;;;12.90;57.20;;;;;;10441309;28;20467;-72
2022/03/23 19:06:27;;;;;;;16.15;6.75;;;12.70;57.30;;;;;;10439909;28;20048;-72
2022/03/23 19:11:29;;;;;;;16.33;6.28;;;12.50;58.40;;;;;;10442266;28;20045;-72
2022/03/23 19:16:31;;;;;;;12.57;5.63;;;12.30;59.20;;;;;;10437990;28;20064;-72
2022/03/23 19:21:33;;;;;;;12.77;6.32;;;12.00;60.10;;;;;;10443996;28;20041;-72
2022/03/23 19:26:35;;;;;;;11.77;5.88;;;11.80;60.00;;;;;;10443368;28;20049;-73
2022/03/23 19:31:37;;;;;;;18.20;6.70;;;11.60;60.80;;;;;;10441417;28;20553;-74
2022/03/23 19:36:40;;;;;;;20.23;7.22;;;11.50;61.00;;;;;;10439774;28;20059;-73
2022/03/23 19:41:42;;;;;;;17.45;8.70;;;11.30;62.20;;;;;;10444820;28;20051;-72
2022/03/23 19:46:44;;;;;;;20.60;9.50;;;11.10;62.10;;;;;;10429697;28;20147;-72
2022/03/23 19:51:46;;;;;;;12.65;5.97;;;11.00;63.10;;;;;;10429678;28;20067;-74
2022/03/23 19:56:48;;;;;;;17.70;8.65;;;10.80;61.90;;;;;;10449271;28;20052;-73
2022/03/23 20:01:50;;;;;;;13.57;6.40;;;10.60;62.60;;;;;;10445000;28;20106;-73
2022/03/23 20:06:52;;;;;;;14.27;6.80;;;10.40;63.20;;;;;;10443103;28;20049;-73
2022/03/23 20:11:54;;;;;;;13.90;5.70;;;10.30;63.10;;;;;;10442199;28;20055;-72
2022/03/23 20:16:56;;;;;;;15.30;6.03;;;10.30;68.70;;;;;;10433866;28;20052;-72
2022/03/23 20:21:58;;;;;;;13.40;5.60;;;10.20;69.10;;;;;;10438636;28;20073;-72
2022/03/23 20:26:59;;;;;;;10.80;5.32;;;10.10;68.40;;;;;;10445395;28;20059;-72
2022/03/23 20:32:01;;;;;;;9.32;5.38;;;9.90;67.10;;;;;;10445658;28;20106;-72
2022/03/23 20:37:03;;;;;;;13.55;6.10;;;9.70;64.80;;;;;;10441680;28;20099;-71
2022/03/23 20:42:05;;;;;;;16.10;7.22;;;9.60;64.80;;;;;;10467264;28;20045;-72
2022/03/23 20:47:07;;;;;;;19.58;7.20;;;9.50;67.60;;;;;;10503565;28;20067;-72
2022/03/23 20:52:09;;;;;;;22.45;9.73;;;9.30;68.50;;;;;;10450578;28;20048;-72
2022/03/23 20:57:10;;;;;;;15.50;8.25;;;9.10;68.80;;;;;;10448732;28;20110;-72
2022/03/23 21:02:14;;;;;;;18.13;7.95;;;9.00;70.00;;;;;;10447025;28;20477;-72
2022/03/23 21:07:17;;;;;;;20.42;9.45;;;8.80;69.50;;;;;;10450106;28;20045;-72
2022/03/23 21:12:19;;;;;;;21.02;8.85;;;8.70;69.80;;;;;;10452628;28;20242;-73
2022/03/23 21:17:20;;;;;;;11.60;5.20;;;8.50;69.50;;;;;;10455143;28;20376;-72
2022/03/23 21:22:22;;;;;;;14.18;5.38;;;8.30;69.70;;;;;;10451060;28;20049;-74
2022/03/23 21:27:24;;;;;;;17.00;6.57;;;8.30;70.30;;;;;;10450430;28;20507;-72
2022/03/23 21:32:26;;;;;;;12.60;6.03;;;8.20;71.80;;;;;;10449378;28;20052;-72
2022/03/23 21:37:27;;;;;;;14.60;6.03;;;8.10;72.00;;;;;;10449290;28;20060;-72
2022/03/23 21:42:30;;;;;;;16.70;5.80;;;8.00;72.40;;;;;;10446514;28;20105;-73
2022/03/23 21:47:32;;;;;;;14.60;5.72;;;8.00;73.00;;;;;;10447336;28;20170;-72
2022/03/23 21:52:33;;;;;;;17.70;6.20;;;8.00;73.60;;;;;;10441441;28;20048;-72
2022/03/23 21:57:36;;;;;;;13.02;6.18;;;7.80;73.20;;;;;;10447689;28;20083;-70
2022/03/23 22:02:39;;;;;;;18.95;6.50;;;7.80;74.20;;;;;;10439335;28;20091;-72
2022/03/23 22:07:41;;;;;;;14.52;6.10;;;7.70;76.50;;;;;;10443758;28;20058;-72
2022/03/23 22:12:43;;;;;;;17.15;6.55;;;7.60;77.10;;;;;;10445773;28;20117;-72
2022/03/23 22:17:44;;;;;;;14.60;6.78;;;7.50;77.70;;;;;;10448389;28;20077;-72
2022/03/23 22:22:47;;;;;;;14.63;7.72;;;;;;;;;;10446970;28;20071;-73
2022/03/23 22:27:49;;;;;;;18.70;7.60;;;;;;;;;;10445713;28;20475;-72
2022/03/23 22:32:51;;;;;;;14.73;6.90;;;7.30;78.20;;;;;;10441402;28;20107;-73
2022/03/23 22:37:52;;;;;;;16.38;7.25;;;7.10;79.20;;;;;;10444940;28;20079;-72
2022/03/23 22:42:54;;;;;;;13.60;6.57;;;7.10;79.10;;;;;;10445425;28;20557;-72
2022/03/23 22:47:56;;;;;;;11.52;5.50;;;7.00;80.00;;;;;;10451489;28;20573;-72
2022/03/23 22:52:58;;;;;;;20.27;6.80;;;6.90;81.60;;;;;;10448141;28;20457;-73
2022/03/23 22:58:00;;;;;;;14.18;6.07;;;6.80;82.20;;;;;;10439770;28;20526;-73
2022/03/23 23:03:02;;;;;;;17.67;6.82;;;6.80;82.60;;;;;;10441950;28;20107;-71
2022/03/23 23:08:04;;;;;;;20.65;7.60;;;6.60;83.50;;;;;;10440234;28;20072;-70
2022/03/23 23:13:06;;;;;;;17.58;6.80;;;6.50;83.90;;;;;;10441737;28;20079;-70
2022/03/23 23:18:08;;;;;;;23.52;7.43;;;6.50;84.70;;;;;;10441018;28;20076;-70
2022/03/23 23:23:09;;;;;;;13.23;6.18;;;6.40;85.50;;;;;;10435642;28;20079;-70
2022/03/23 23:28:23;;;;;;;15.27;6.50;;;6.30;85.70;;;;;;10441074;28;20380;-70
2022/03/23 23:33:26;;;;;;;15.18;5.97;;;6.20;85.90;;;;;;10432999;28;20106;-68
2022/03/23 23:38:28;;;;;;;16.05;6.55;;;6.20;86.00;;;;;;10441648;28;20141;-69
2022/03/23 23:43:30;;;;;;;17.17;4.97;;;6.10;87.40;;;;;;10438667;28;20126;-69
2022/03/23 23:48:34;;;;;;;21.77;6.78;;;6.00;86.90;;;;;;10445805;28;20512;-71
2022/03/23 23:53:36;;;;;;;13.32;5.90;;;5.90;88.00;;;;;;10438078;28;20048;-71
2022/03/23 23:58:39;;;;;;;12.70;6.07;;;5.90;89.00;;;;;;10440356;28;20052;-70
